Lenore, Idaho
Current Conditions -  °F | °C
As of 4:56 AM on Friday 19 Dec 2014 (Local Time) from KLWS Reporting Station
Overcast Overcast  
Wind Chill: 40°   Ceiling: 7000
Heat Index: 43°   Visibility: 10mi
Dew Point: 37°   Wind: 5mph
Humidity: 80%   Direction: 80°E
Pressure: 29.91"   Gusts: NA
Location:  46.51°N, 116.55°W
Report Text: KLWS 191256Z AUTO 08004KT 10SM OVC070 06/03 A2991 RMK AO2 SLP136 T00610028
Loading
Personal Weather Stations






























Interactive Weather Map New forecast layout! Learn more

10-Day Weather Forecast

Advertisements
Track Severe Weather on mobile